Photometre #394[NE_1.6] Lampedusa AOT

File : 20190925_394.hum

25/09/2019,05:43:23,TEMP=26.9,BA=5.60,STAT.h
25/09/2019,05:46:32,TEMP=26.9,BA=5.60,STAT.h
25/09/2019,05:50:13,TEMP=26.9,BA=5.60,STAT.h
25/09/2019,05:54:36,TEMP=26.9,BA=5.60,STAT.h
25/09/2019,05:59:52,TEMP=26.9,BA=5.60,STAT.h
25/09/2019,06:06:22,TEMP=26.9,BA=5.60,STAT.h
25/09/2019,06:14:33,TEMP=26.9,BA=5.60,STAT.h
25/09/2019,06:18:30,TEMP=26.9,BA=5.60,STAT.h
25/09/2019,06:22:50,TEMP=26.9,BA=5.60,STAT.h
25/09/2019,06:27:46,TEMP=26.9,BA=5.60,STAT.h
25/09/2019,06:33:21,TEMP=26.9,BA=5.60,STAT.h
25/09/2019,06:39:46,TEMP=26.9,BA=5.60,STAT.h
25/09/2019,06:47:12,TEMP=26.9,BA=5.60,STAT.h
25/09/2019,06:56:17,TEMP=26.9,BA=5.60,STAT.A=1.0,ExtBa=12.27
25/09/2019,07:06:20,TEMP=27.4,BA=5.60,STAT.h
25/09/2019,07:19:23,TEMP=27.7,BA=5.60,STAT.A=1.0,ExtBa=12.26
25/09/2019,07:35:17,TEMP=28.4,BA=5.60,STAT.B=1.0,ExtBa=12.26
25/09/2019,07:46:51,TEMP=28.4,BA=5.48,STAT.D=1.0,ExtBa=12.21
25/09/2019,08:01:53,TEMP=28.5,BA=5.60,STAT.F,ExtBa=12.23
25/09/2019,08:16:51,TEMP=29.3,BA=5.48,STAT.D=1.0,ExtBa=12.20
25/09/2019,08:31:51,TEMP=29.7,BA=5.60,STAT.D=1.0,ExtBa=12.22
25/09/2019,08:46:51,TEMP=29.9,BA=5.60,STAT.D=1.0,ExtBa=12.22
25/09/2019,09:01:53,TEMP=30.9,BA=5.52,STAT.F,ExtBa=12.23
25/09/2019,09:16:51,TEMP=31.3,BA=5.44,STAT.D=1.0,ExtBa=12.20
25/09/2019,09:31:52,TEMP=31.3,BA=5.48,STAT.D=1.0,ExtBa=12.22
25/09/2019,09:46:52,TEMP=31.6,BA=5.48,STAT.D=1.0,ExtBa=12.22
25/09/2019,10:01:53,TEMP=31.7,BA=5.48,STAT.F,ExtBa=12.23
25/09/2019,10:16:52,TEMP=31.7,BA=5.48,STAT.D=1.0,ExtBa=12.21
25/09/2019,10:31:52,TEMP=32.2,BA=5.48,STAT.D=1.0,ExtBa=12.22
25/09/2019,10:46:52,TEMP=32.0,BA=5.44,STAT.D=1.0,ExtBa=12.23
25/09/2019,11:01:53,TEMP=31.6,BA=5.44,STAT.F,ExtBa=12.23
25/09/2019,11:16:52,TEMP=32.1,BA=5.44,STAT.D=1.0,ExtBa=12.22
25/09/2019,11:31:52,TEMP=32.6,BA=5.44,STAT.D=1.0,ExtBa=12.23
25/09/2019,11:46:52,TEMP=32.1,BA=5.44,STAT.D=1.0,ExtBa=12.24
25/09/2019,12:01:53,TEMP=32.2,BA=5.44,STAT.F,ExtBa=12.24
25/09/2019,12:16:52,TEMP=31.7,BA=5.40,STAT.D=1.0,ExtBa=12.23
25/09/2019,12:31:52,TEMP=31.6,BA=5.40,STAT.D=1.0,ExtBa=12.23
25/09/2019,12:46:51,TEMP=31.1,BA=5.40,STAT.D=1.0,ExtBa=12.24
25/09/2019,13:01:53,TEMP=30.6,BA=5.40,STAT.F,ExtBa=12.24
25/09/2019,13:16:51,TEMP=31.6,BA=5.36,STAT.D=1.0,ExtBa=12.21
25/09/2019,13:31:51,TEMP=31.1,BA=5.44,STAT.D=1.0,ExtBa=12.22
25/09/2019,13:46:51,TEMP=30.3,BA=5.40,STAT.D=1.0,ExtBa=12.23
25/09/2019,14:01:52,TEMP=29.8,BA=5.44,STAT.F,ExtBa=12.23
25/09/2019,14:16:51,TEMP=29.9,BA=5.36,STAT.D=1.0,ExtBa=12.20
25/09/2019,14:28:27,TEMP=29.7,BA=5.36,STAT.B=1.0,ExtBa=12.22
25/09/2019,14:44:21,TEMP=29.4,BA=5.48,STAT.A=1.0,ExtBa=12.20
25/09/2019,14:57:02,TEMP=29.5,BA=5.48,STAT.A=1.0,ExtBa=12.21
25/09/2019,15:07:27,TEMP=29.8,BA=5.48,STAT.A=1.0,ExtBa=12.21
25/09/2019,15:16:10,TEMP=29.7,BA=5.48,STAT.A=1.0,ExtBa=12.21
25/09/2019,15:23:36,TEMP=29.8,BA=5.48,STAT.C=1.0,ExtBa=12.21
25/09/2019,15:33:18,TEMP=30.4,BA=5.36,STAT.A=1.0,ExtBa=12.17
25/09/2019,15:37:38,TEMP=30.6,BA=5.36,STAT.A=0.5,ExtBa=12.17
25/09/2019,15:40:32,TEMP=29.9,BA=5.48,STAT.A=1.0,ExtBa=12.18
25/09/2019,15:44:54,TEMP=29.4,BA=5.48,STAT.A=1.0,ExtBa=12.19
25/09/2019,15:48:49,TEMP=29.4,BA=5.48,STAT.B=1.0,ExtBa=12.19
25/09/2019,15:57:13,TEMP=29.7,BA=5.36,STAT.A=1.0,ExtBa=12.16
25/09/2019,16:03:30,TEMP=29.0,BA=5.48,STAT.A=1.0,ExtBa=12.19
25/09/2019,16:08:46,TEMP=28.9,BA=5.48,STAT.A=1.0,ExtBa=12.19
25/09/2019,16:13:08,TEMP=28.9,BA=5.40,STAT.A=1.0,ExtBa=12.18
25/09/2019,16:16:49,TEMP=28.9,BA=5.40,STAT.A=1.0,ExtBa=12.18
25/09/2019,16:21:36,TEMP=29.3,BA=5.44,STAT.h